Canaan, Missouri
Current Conditions -  °F | °C
As of 10:53 AM on Sunday 23 Nov 2014 (Local Time) from KVIH Reporting Station
Light Rain Light Rain  
Wind Chill: 54°   Ceiling: 700
Heat Index: 54°   Visibility: 8mi
Dew Point: 52°   Wind: 7mph
Humidity: 93%   Direction: 160°SSE
Pressure: 29.51"   Gusts: NA
Location:  38.3239°N, 91.6268°W
Report Text: KVIH 231653Z AUTO 16006KT 8SM -RA OVC007 12/11 A2951 RMK AO2 CIG 004V011 SLP991 P0003 T01220111
Loading
Personal Weather Stations






























Interactive Weather Map New forecast layout! Learn more

10-Day Weather Forecast

Advertisements
Track Severe Weather on mobile